Time;durP1;ratioP1;P1;durP2;ratioP2;P2;SDS_P1;SDS_P2;PMS_P1;PMS_P2;Temp;Humidity;BMP_temperature;BMP_pressure;BME280_temperature;BME280_humidity;BME280_pressure;Samples;Min_cycle;Max_cycle;Signal;HPM_P1;HPM_P2
2023/12/30 00:02:02;;;;;;;11.30;0.82;;;;;;;;;;5008763;28;20092;-86
2023/12/30 00:04:28;;;;;;;13.85;1.35;;;5.90;99.90;;;;;;5011045;28;20116;-86
2023/12/30 00:06:54;;;;;;;9.93;0.85;;;5.70;99.90;;;;;;4972259;28;20045;-84
2023/12/30 00:09:20;;;;;;;12.05;1.05;;;5.80;99.90;;;;;;4992297;28;20037;-86
2023/12/30 00:11:46;;;;;;;7.38;1.05;;;5.80;99.90;;;;;;4991729;28;20037;-83
2023/12/30 00:14:14;;;;;;;10.50;0.47;;;5.80;99.90;;;;;;4991783;28;20050;-84
2023/12/30 00:16:41;;;;;;;11.50;1.90;;;5.80;99.90;;;;;;5007648;28;20115;-84
2023/12/30 00:19:08;;;;;;;10.50;1.15;;;5.80;99.90;;;;;;4991318;28;20573;-86
2023/12/30 00:21:34;;;;;;;8.32;0.60;;;5.70;99.90;;;;;;4994273;28;20459;-84
2023/12/30 00:24:02;;;;;;;10.30;1.13;;;;;;;;;;4991495;28;20443;-86
2023/12/30 00:26:28;;;;;;;8.40;1.90;;;5.50;99.90;;;;;;4993541;28;20505;-83
2023/12/30 00:28:54;;;;;;;8.73;0.75;;;;;;;;;;4988847;28;20048;-84
2023/12/30 00:31:25;;;;;;;9.13;1.73;;;5.60;99.90;;;;;;4989802;28;20053;-83
2023/12/30 00:33:59;;;;;;;10.65;0.98;;;3.20;99.90;;;;;;4988455;28;20061;-82
2023/12/30 00:36:25;;;;;;;8.48;1.00;;;5.20;99.90;;;;;;5007126;28;20537;-85
2023/12/30 00:38:54;;;;;;;9.63;0.63;;;5.20;99.90;;;;;;5004811;28;20046;-85
2023/12/30 00:41:24;;;;;;;10.52;1.50;;;5.30;99.90;;;;;;4989630;28;20042;-84
2023/12/30 00:43:50;;;;;;;11.27;0.57;;;5.20;99.90;;;;;;4988187;28;20156;-82
2023/12/30 00:46:19;;;;;;;11.95;1.33;;;5.20;99.90;;;;;;4988842;28;20922;-85
2023/12/30 00:48:45;;;;;;;5.70;0.77;;;5.20;99.90;;;;;;4981915;28;20057;-84
2023/12/30 00:51:11;;;;;;;11.82;1.15;;;5.40;99.90;;;;;;5004276;28;20693;-84
2023/12/30 00:53:37;;;;;;;8.57;1.58;;;;;;;;;;5003520;28;20046;-85
2023/12/30 00:56:06;;;;;;;11.18;1.08;;;5.20;99.90;;;;;;5004437;28;20073;-82
2023/12/30 00:58:31;;;;;;;9.05;1.17;;;5.20;99.90;;;;;;4991026;28;20060;-83
2023/12/30 01:00:57;;;;;;;5.90;0.80;;;5.20;99.90;;;;;;5007458;28;20147;-83
2023/12/30 01:03:23;;;;;;;21.33;2.67;;;5.20;99.90;;;;;;5005450;28;20061;-85
2023/12/30 01:05:49;;;;;;;6.10;1.05;;;5.10;99.90;;;;;;5003645;28;20132;-83
2023/12/30 01:08:15;;;;;;;7.20;0.95;;;5.10;99.90;;;;;;5004392;28;20096;-85
2023/12/30 01:10:41;;;;;;;8.93;0.55;;;5.10;99.90;;;;;;5003633;28;20053;-85
2023/12/30 01:13:26;;;;;;;9.50;0.93;;;5.10;99.90;;;;;;4985158;28;20053;-84
2023/12/30 01:15:52;;;;;;;10.10;0.65;;;5.00;99.90;;;;;;4985938;28;20050;-83
2023/12/30 01:18:18;;;;;;;6.15;0.63;;;;;;;;;;4969880;28;20580;-85
2023/12/30 01:20:44;;;;;;;9.43;0.70;;;5.10;99.90;;;;;;4986062;28;20049;-84
2023/12/30 01:23:10;;;;;;;9.40;0.82;;;5.10;99.90;;;;;;4969979;28;20050;-84
2023/12/30 01:25:38;;;;;;;8.70;0.65;;;5.10;99.90;;;;;;4969799;28;20868;-83
2023/12/30 01:28:07;;;;;;;8.38;0.60;;;5.10;99.90;;;;;;4985866;28;20046;-85
2023/12/30 01:30:35;;;;;;;7.50;0.82;;;5.00;99.90;;;;;;4969491;28;20129;-84
2023/12/30 01:33:01;;;;;;;9.45;0.70;;;5.00;99.90;;;;;;4985426;28;20061;-81
2023/12/30 01:35:27;;;;;;;5.78;0.55;;;5.10;99.90;;;;;;4969422;28;20042;-85
2023/12/30 01:37:53;;;;;;;7.88;0.57;;;5.10;99.90;;;;;;4969428;28;20132;-83
2023/12/30 01:40:19;;;;;;;12.43;1.15;;;5.10;99.90;;;;;;4985569;28;20071;-82
2023/12/30 01:42:45;;;;;;;7.45;1.40;;;;;;;;;;4969638;28;20176;-83
2023/12/30 01:45:12;;;;;;;8.02;0.63;;;5.10;99.90;;;;;;4985550;28;20161;-82
2023/12/30 01:47:38;;;;;;;8.30;0.65;;;5.00;99.90;;;;;;4985485;28;20080;-81
2023/12/30 01:50:05;;;;;;;10.48;1.48;;;5.10;99.90;;;;;;4972655;28;20088;-83
2023/12/30 01:52:33;;;;;;;11.55;1.15;;;5.30;99.90;;;;;;5007051;28;20057;-87
2023/12/30 01:54:59;;;;;;;4.32;0.30;;;5.10;99.90;;;;;;4987042;28;20095;-84
2023/12/30 01:57:25;;;;;;;9.40;0.47;;;4.90;99.90;;;;;;5005890;28;20990;-87
2023/12/30 01:59:52;;;;;;;6.85;0.65;;;5.10;99.90;;;;;;5004044;28;20038;-84
2023/12/30 02:02:18;;;;;;;7.82;1.23;;;1.80;99.90;;;;;;4988332;28;20042;-84
2023/12/30 02:04:44;;;;;;;9.63;0.80;;;5.00;99.90;;;;;;4986824;28;20427;-84
2023/12/30 02:07:09;;;;;;;9.75;0.70;;;4.90;99.90;;;;;;4986618;28;20841;-83
2023/12/30 02:09:36;;;;;;;7.20;0.98;;;4.90;99.90;;;;;;5002897;28;20046;-82
2023/12/30 02:12:22;;;;;;;9.05;0.55;;;4.70;99.90;;;;;;5002957;28;20050;-83
2023/12/30 02:14:48;;;;;;;6.60;0.93;;;4.90;99.90;;;;;;4948167;28;20133;-83
2023/12/30 02:17:14;;;;;;;12.00;0.50;;;;;;;;;;4949938;28;20096;-83
2023/12/30 02:19:40;;;;;;;6.07;0.40;;;4.90;99.90;;;;;;4967628;28;20483;-82
2023/12/30 02:22:06;;;;;;;14.80;1.85;;;4.90;99.90;;;;;;4968178;28;20626;-83
2023/12/30 02:24:31;;;;;;;10.93;0.30;;;4.90;99.90;;;;;;4967428;28;20141;-84
2023/12/30 02:26:57;;;;;;;12.27;1.65;;;5.00;99.90;;;;;;4951376;28;20085;-81
2023/12/30 02:29:23;;;;;;;8.07;1.02;;;5.00;99.90;;;;;;4951199;28;20054;-83
2023/12/30 02:31:49;;;;;;;7.20;0.73;;;5.00;99.90;;;;;;4950581;28;20038;-84
2023/12/30 02:34:17;;;;;;;7.72;0.77;;;2.00;99.90;;;;;;4948280;28;20066;-83
2023/12/30 02:36:47;;;;;;;7.78;1.13;;;5.20;99.90;;;;;;4939641;28;20198;-82
2023/12/30 02:39:13;;;;;;;8.23;0.80;;;5.10;99.90;;;;;;4965394;28;20069;-86
2023/12/30 02:41:39;;;;;;;9.30;0.65;;;5.20;99.90;;;;;;4948727;28;20058;-83
2023/12/30 02:44:06;;;;;;;7.68;0.40;;;4.90;99.90;;;;;;4948821;28;20129;-83
2023/12/30 02:46:32;;;;;;;9.20;0.50;;;5.40;99.90;;;;;;4979941;28;20582;-84
2023/12/30 02:49:02;;;;;;;14.57;2.28;;;5.20;99.90;;;;;;5002230;28;20045;-84
2023/12/30 02:51:28;;;;;;;4.80;0.40;;;5.20;99.90;;;;;;4988305;28;20052;-85
2023/12/30 02:53:54;;;;;;;14.30;0.85;;;5.20;99.90;;;;;;4985349;28;20419;-83
2023/12/30 02:56:25;;;;;;;11.20;1.13;;;5.40;99.90;;;;;;4987269;28;20045;-84
2023/12/30 02:58:59;;;;;;;15.95;1.85;;;5.10;99.90;;;;;;4986434;28;20045;-84
2023/12/30 03:01:30;;;;;;;9.75;0.60;;;5.20;99.90;;;;;;5004154;28;20050;-82
2023/12/30 03:03:58;;;;;;;8.10;0.52;;;5.10;99.90;;;;;;5001866;28;20081;-84
2023/12/30 03:06:24;;;;;;;9.20;0.88;;;5.10;99.90;;;;;;4987776;28;20053;-83
2023/12/30 03:08:51;;;;;;;5.32;0.38;;;5.20;99.90;;;;;;4985932;28;20107;-86
2023/12/30 03:11:17;;;;;;;5.85;0.60;;;5.20;99.90;;;;;;5003104;28;20132;-83
2023/12/30 03:13:46;;;;;;;12.70;0.80;;;5.30;99.90;;;;;;5002381;28;20041;-86
2023/12/30 03:16:15;;;;;;;11.60;0.40;;;5.20;99.90;;;;;;4987045;28;20070;-87
2023/12/30 03:18:42;;;;;;;8.18;0.82;;;5.40;99.90;;;;;;5006040;28;20084;-85
2023/12/30 03:21:09;;;;;;;8.57;1.80;;;5.40;99.90;;;;;;4986507;28;20124;-83
2023/12/30 03:23:39;;;;;;;6.63;1.33;;;5.50;99.90;;;;;;4979639;28;20081;-83
2023/12/30 03:26:06;;;;;;;7.57;1.13;;;5.40;99.90;;;;;;5004998;28;20046;-85
2023/12/30 03:28:32;;;;;;;10.13;0.40;;;5.20;99.90;;;;;;4992368;28;20518;-87
2023/12/30 03:30:59;;;;;;;8.57;2.33;;;5.30;99.90;;;;;;4989088;28;20868;-85
2023/12/30 03:33:25;;;;;;;10.15;0.52;;;;;;;;;;4991694;28;20053;-84
2023/12/30 03:35:51;;;;;;;6.68;0.47;;;5.30;99.90;;;;;;4989512;28;20033;-84
2023/12/30 03:38:17;;;;;;;6.80;0.57;;;5.40;99.90;;;;;;5006914;28;20103;-83
2023/12/30 03:40:43;;;;;;;9.57;0.98;;;5.20;99.90;;;;;;5005572;28;20045;-85
2023/12/30 03:43:09;;;;;;;12.48;0.80;;;5.40;99.90;;;;;;4989681;28;20038;-84
2023/12/30 03:45:35;;;;;;;8.50;0.60;;;5.20;99.90;;;;;;5005591;28;20050;-85
2023/12/30 03:48:01;;;;;;;6.90;0.95;;;5.20;99.90;;;;;;5004295;28;20515;-82
2023/12/30 03:50:26;;;;;;;7.32;0.60;;;5.10;99.90;;;;;;5008132;28;20125;-82
2023/12/30 03:52:53;;;;;;;12.38;2.92;;;5.10;99.90;;;;;;4989256;28;20037;-88
2023/12/30 03:55:18;;;;;;;7.07;1.00;;;5.10;99.90;;;;;;4991223;28;20411;-86
2023/12/30 03:57:44;;;;;;;10.23;0.65;;;4.90;99.90;;;;;;4991941;28;20257;-85
2023/12/30 04:00:14;;;;;;;13.10;2.20;;;5.00;99.90;;;;;;4996718;28;20100;-83
2023/12/30 04:02:40;;;;;;;5.82;1.08;;;4.70;99.90;;;;;;4997428;28;20115;-85
2023/12/30 04:05:06;;;;;;;8.63;0.88;;;5.00;99.90;;;;;;5011312;28;20073;-85
2023/12/30 04:07:32;;;;;;;8.52;0.73;;;4.70;99.90;;;;;;4994056;28;20103;-82
2023/12/30 04:09:58;;;;;;;7.85;0.60;;;5.10;99.90;;;;;;5007052;28;20085;-81
2023/12/30 04:12:24;;;;;;;11.43;1.13;;;5.00;99.90;;;;;;4991787;28;20534;-85
2023/12/30 04:14:51;;;;;;;7.38;0.52;;;5.10;99.90;;;;;;5006231;28;20050;-83
2023/12/30 04:17:17;;;;;;;5.35;0.60;;;5.00;99.90;;;;;;4990770;28;20920;-81
2023/12/30 04:19:42;;;;;;;4.47;0.70;;;5.10;99.90;;;;;;4990266;28;20045;-85
2023/12/30 04:22:08;;;;;;;13.82;1.38;;;5.20;99.90;;;;;;4989979;28;20795;-86
2023/12/30 04:24:34;;;;;;;9.80;1.15;;;4.90;99.90;;;;;;5009840;28;20045;-83
2023/12/30 04:27:00;;;;;;;11.32;1.00;;;;;;;;;;4989549;28;20073;-86
2023/12/30 04:29:28;;;;;;;10.55;0.75;;;5.00;99.90;;;;;;4992625;28;20522;-83
2023/12/30 04:31:54;;;;;;;4.90;0.50;;;4.90;99.90;;;;;;4990744;28;20135;-84
2023/12/30 04:34:20;;;;;;;11.07;1.10;;;4.90;99.90;;;;;;5008563;28;20114;-82
2023/12/30 04:36:46;;;;;;;8.35;1.52;;;4.80;99.90;;;;;;5006239;28;20052;-83
2023/12/30 04:39:12;;;;;;;10.05;0.90;;;4.90;99.90;;;;;;4991678;28;20112;-86
2023/12/30 04:41:38;;;;;;;11.70;1.33;;;4.90;99.90;;;;;;4992439;28;20048;-87
2023/12/30 04:44:04;;;;;;;12.02;0.90;;;4.90;99.90;;;;;;4992126;28;20510;-84
2023/12/30 04:46:30;;;;;;;6.35;0.60;;;4.90;99.90;;;;;;5009766;28;20507;-83
2023/12/30 04:49:02;;;;;;;9.80;1.00;;;4.90;99.90;;;;;;5007054;28;20045;-84
2023/12/30 04:51:28;;;;;;;;;;;4.80;99.90;;;;;;4993267;28;20055;-84
2023/12/30 04:53:54;;;;;;;14.27;3.05;;;5.00;99.90;;;;;;5006369;28;19929;-83
2023/12/30 04:56:20;;;;;;;5.25;0.70;;;4.80;99.90;;;;;;5007632;28;20526;-82
2023/12/30 04:58:50;;;;;;;13.35;0.80;;;4.70;99.90;;;;;;4989513;28;20042;-86
2023/12/30 05:01:19;;;;;;;6.82;0.40;;;4.80;99.90;;;;;;4990252;28;20163;-86
2023/12/30 05:03:45;;;;;;;15.57;2.20;;;5.40;99.90;;;;;;5005236;28;20554;-84
2023/12/30 05:06:21;;;;;;;6.60;0.95;;;4.80;99.90;;;;;;4988584;28;20123;-82
2023/12/30 05:08:51;;;;;;;14.13;1.77;;;3.20;99.90;;;;;;5004436;28;20049;-83
2023/12/30 05:11:17;;;;;;;13.68;2.65;;;;;;;;;;4988989;28;20050;-82
2023/12/30 05:13:43;;;;;;;9.68;1.02;;;4.80;99.90;;;;;;5004594;28;20406;-85
2023/12/30 05:16:10;;;;;;;17.83;1.33;;;4.70;99.90;;;;;;5004828;28;20045;-86
2023/12/30 05:18:35;;;;;;;7.43;0.63;;;4.70;99.90;;;;;;4989126;28;20049;-82
2023/12/30 05:21:02;;;;;;;11.70;0.93;;;;;;;;;;4989094;28;20053;-84
2023/12/30 05:23:28;;;;;;;7.50;1.00;;;4.80;99.90;;;;;;4990943;28;20042;-83
2023/12/30 05:25:54;;;;;;;12.52;1.42;;;4.80;99.90;;;;;;5004261;28;20052;-85
2023/12/30 05:28:20;;;;;;;9.95;1.10;;;4.70;99.90;;;;;;4988916;28;20128;-85
2023/12/30 05:30:46;;;;;;;8.90;1.33;;;4.70;99.90;;;;;;5003999;28;20053;-81
2023/12/30 05:33:11;;;;;;;7.18;0.50;;;4.70;99.90;;;;;;4987265;28;20088;-84
2023/12/30 05:35:40;;;;;;;9.80;0.90;;;4.70;99.90;;;;;;4986816;28;20069;-82
2023/12/30 05:38:06;;;;;;;9.95;0.60;;;;;;;;;;4987078;28;20058;-83
2023/12/30 05:40:31;;;;;;;9.63;1.02;;;4.70;99.90;;;;;;4989979;28;20789;-83
2023/12/30 05:42:57;;;;;;;11.13;0.90;;;4.60;99.90;;;;;;4987221;28;20045;-83
2023/12/30 05:45:23;;;;;;;9.68;0.70;;;4.70;99.90;;;;;;5005498;28;20077;-81
2023/12/30 05:47:49;;;;;;;9.98;1.17;;;4.50;99.90;;;;;;4987010;28;20050;-82
2023/12/30 05:50:14;;;;;;;7.57;0.52;;;4.60;99.90;;;;;;4987393;28;20056;-84
2023/12/30 05:52:40;;;;;;;6.40;0.57;;;4.60;99.90;;;;;;5003315;28;20706;-82
2023/12/30 05:55:06;;;;;;;6.53;0.80;;;4.60;99.90;;;;;;4987129;28;20034;-85
2023/12/30 05:57:32;;;;;;;11.00;1.58;;;4.80;99.90;;;;;;4990258;28;20689;-83
2023/12/30 05:59:58;;;;;;;14.32;0.60;;;4.70;99.90;;;;;;5003684;28;20041;-84
2023/12/30 06:02:24;;;;;;;10.88;1.10;;;4.50;99.90;;;;;;4989395;28;20042;-83
2023/12/30 06:04:50;;;;;;;10.48;0.75;;;4.70;99.90;;;;;;4990082;28;20052;-86
2023/12/30 06:07:16;;;;;;;10.73;1.50;;;4.70;99.90;;;;;;5005295;28;20140;-83
2023/12/30 06:09:42;;;;;;;9.18;0.85;;;4.60;99.90;;;;;;4987454;28;20050;-83
2023/12/30 06:12:27;;;;;;;15.63;1.10;;;4.60;99.90;;;;;;4987048;28;20046;-83
2023/12/30 06:14:53;;;;;;;11.30;1.42;;;4.50;99.90;;;;;;4966116;28;20112;-83
2023/12/30 06:17:19;;;;;;;12.23;0.60;;;4.30;99.90;;;;;;4965659;28;20424;-85
2023/12/30 06:19:44;;;;;;;10.30;0.90;;;4.40;99.90;;;;;;4948717;28;20193;-87
2023/12/30 06:22:11;;;;;;;13.98;2.10;;;;;;;;;;4965862;28;20038;-85
2023/12/30 06:24:37;;;;;;;10.40;0.75;;;;;;;;;;4947950;28;20046;-83
2023/12/30 06:27:03;;;;;;;10.20;1.65;;;4.60;99.90;;;;;;4965274;28;20052;-83
2023/12/30 06:29:32;;;;;;;10.80;0.85;;;4.50;99.90;;;;;;4960128;28;20042;-84
2023/12/30 06:31:58;;;;;;;11.13;2.15;;;4.50;99.90;;;;;;4942695;28;20034;-82
2023/12/30 06:34:24;;;;;;;13.68;2.10;;;4.50;99.90;;;;;;4959620;28;20050;-83
2023/12/30 06:36:49;;;;;;;12.60;1.63;;;4.50;99.90;;;;;;4964604;28;20497;-82
2023/12/30 06:39:18;;;;;;;10.82;1.25;;;4.40;99.90;;;;;;4949108;28;20276;-84
2023/12/30 06:41:44;;;;;;;13.88;0.82;;;4.40;99.90;;;;;;4965154;28;20062;-81
2023/12/30 06:44:10;;;;;;;14.48;1.63;;;4.50;99.90;;;;;;4949138;28;20046;-84
2023/12/30 06:46:36;;;;;;;14.70;1.15;;;4.50;99.90;;;;;;4977475;28;20064;-83
2023/12/30 06:49:02;;;;;;;15.57;0.88;;;4.50;99.90;;;;;;4985368;28;20084;-82
2023/12/30 06:51:28;;;;;;;8.65;0.60;;;4.70;99.90;;;;;;4988124;28;20041;-84
2023/12/30 06:53:54;;;;;;;11.00;2.17;;;4.50;99.90;;;;;;5001681;28;20129;-85
2023/12/30 06:56:20;;;;;;;8.63;0.70;;;4.60;99.90;;;;;;5003514;28;20117;-84
2023/12/30 06:58:46;;;;;;;11.30;1.20;;;4.50;99.90;;;;;;5005470;28;20049;-84
2023/12/30 07:01:13;;;;;;;18.08;1.20;;;5.30;99.90;;;;;;4979401;28;20038;-83
2023/12/30 07:03:39;;;;;;;10.95;0.95;;;;;;;;;;4998627;28;20061;-87
2023/12/30 07:06:05;;;;;;;18.48;1.75;;;4.50;99.90;;;;;;4996191;28;20132;-81
2023/12/30 07:08:31;;;;;;;15.48;1.40;;;4.50;99.90;;;;;;5021675;28;20058;-84
2023/12/30 07:10:57;;;;;;;11.38;1.17;;;4.50;99.90;;;;;;5001472;28;20049;-85
2023/12/30 07:13:23;;;;;;;10.57;0.90;;;4.60;99.90;;;;;;4987083;28;20038;-82
2023/12/30 07:15:50;;;;;;;10.75;0.88;;;4.50;99.90;;;;;;4985036;28;20498;-83
2023/12/30 07:18:17;;;;;;;10.27;1.42;;;4.50;99.90;;;;;;5002142;28;20080;-82
2023/12/30 07:20:43;;;;;;;14.82;1.45;;;4.50;99.90;;;;;;5001558;28;20117;-85
2023/12/30 07:23:09;;;;;;;7.97;1.40;;;4.60;99.90;;;;;;4997705;28;20038;-85
2023/12/30 07:25:35;;;;;;;10.73;1.10;;;4.50;99.90;;;;;;5001946;28;20166;-83
2023/12/30 07:28:01;;;;;;;11.77;2.30;;;4.40;99.90;;;;;;4995638;28;20038;-83
2023/12/30 07:30:27;;;;;;;17.15;1.25;;;;;;;;;;4986792;28;20042;-83
2023/12/30 07:32:53;;;;;;;8.63;0.63;;;;;;;;;;4979161;28;20056;-82
2023/12/30 07:35:20;;;;;;;19.70;2.90;;;4.40;99.90;;;;;;5001453;28;20214;-84
2023/12/30 07:37:46;;;;;;;12.60;1.15;;;4.70;99.90;;;;;;5001661;28;20081;-85
2023/12/30 07:40:12;;;;;;;12.20;0.93;;;4.50;99.90;;;;;;5002223;28;20121;-83
2023/12/30 07:42:39;;;;;;;8.57;0.60;;;4.60;99.90;;;;;;4985668;28;20561;-84
2023/12/30 07:45:06;;;;;;;7.38;0.90;;;4.60;99.90;;;;;;4984684;28;20515;-84
2023/12/30 07:47:35;;;;;;;9.70;1.15;;;4.80;99.90;;;;;;4987969;28;20052;-86
2023/12/30 07:50:01;;;;;;;19.20;2.22;;;4.40;99.90;;;;;;5001176;28;20041;-84
2023/12/30 07:52:27;;;;;;;12.20;1.35;;;4.70;99.90;;;;;;5003491;28;20045;-83
2023/12/30 07:54:52;;;;;;;11.50;1.13;;;4.80;99.90;;;;;;5001012;28;20034;-83
2023/12/30 07:57:19;;;;;;;10.10;1.27;;;4.70;99.90;;;;;;5002417;28;20101;-83
2023/12/30 07:59:45;;;;;;;20.15;1.33;;;4.60;99.90;;;;;;4987631;28;20103;-85
2023/12/30 08:02:10;;;;;;;14.32;2.00;;;4.60;99.90;;;;;;4985330;28;20037;-84
2023/12/30 08:04:36;;;;;;;14.55;1.40;;;4.60;99.90;;;;;;5001010;28;20847;-86
2023/12/30 08:07:02;;;;;;;12.13;0.90;;;4.60;99.90;;;;;;5000532;28;20038;-83
2023/12/30 08:09:28;;;;;;;11.25;1.50;;;4.70;99.90;;;;;;4987428;28;20108;-83
2023/12/30 08:11:54;;;;;;;14.10;1.05;;;4.80;99.90;;;;;;4981232;28;20049;-82
2023/12/30 08:14:19;;;;;;;13.80;0.90;;;4.70;99.90;;;;;;4989637;28;20497;-84
2023/12/30 08:16:45;;;;;;;12.93;1.17;;;4.60;99.90;;;;;;4987681;28;20054;-83
2023/12/30 08:19:11;;;;;;;12.45;1.40;;;4.60;99.90;;;;;;4990056;28;20048;-85
2023/12/30 08:21:37;;;;;;;17.13;2.45;;;4.60;99.90;;;;;;4991040;28;20145;-83
2023/12/30 08:24:06;;;;;;;16.17;2.13;;;4.40;99.90;;;;;;4989966;28;20490;-86
2023/12/30 08:26:32;;;;;;;15.23;1.80;;;4.50;99.90;;;;;;4992305;28;20053;-83
2023/12/30 08:28:57;;;;;;;15.25;3.10;;;4.80;99.90;;;;;;5005574;28;20132;-84
2023/12/30 08:31:23;;;;;;;13.55;1.15;;;4.60;99.90;;;;;;4993677;28;20052;-85
2023/12/30 08:33:53;;;;;;;16.23;1.35;;;4.70;99.90;;;;;;4997081;28;20163;-86
2023/12/30 08:36:19;;;;;;;15.23;2.08;;;4.80;99.90;;;;;;5012764;28;20133;-83
2023/12/30 08:38:45;;;;;;;16.60;3.03;;;4.90;99.90;;;;;;5009797;28;20133;-85
2023/12/30 08:41:14;;;;;;;16.40;1.20;;;4.90;99.90;;;;;;5006195;28;20503;-84
2023/12/30 08:43:42;;;;;;;10.23;1.15;;;5.00;99.90;;;;;;4990341;28;20128;-85
2023/12/30 08:46:09;;;;;;;10.88;1.05;;;4.80;99.90;;;;;;5002365;28;20046;-84
2023/12/30 08:48:36;;;;;;;12.00;2.45;;;;;;;;;;4982904;28;20641;-83
2023/12/30 08:51:02;;;;;;;11.52;1.35;;;4.80;99.90;;;;;;4984582;28;20908;-83
2023/12/30 08:53:28;;;;;;;17.48;2.03;;;4.90;99.90;;;;;;4986262;28;20052;-82
2023/12/30 08:55:55;;;;;;;16.08;1.48;;;4.90;99.90;;;;;;4985672;28;20033;-86
2023/12/30 08:58:21;;;;;;;10.60;0.80;;;4.90;99.90;;;;;;4985078;28;20038;-83
2023/12/30 09:00:48;;;;;;;16.98;1.00;;;7.80;99.90;;;;;;4986729;28;20057;-83
2023/12/30 09:03:14;;;;;;;14.38;1.65;;;;;;;;;;5003785;28;20128;-84
2023/12/30 09:05:41;;;;;;;7.45;1.00;;;4.90;99.90;;;;;;4981912;28;20046;-83
2023/12/30 09:08:07;;;;;;;10.45;0.80;;;5.00;99.90;;;;;;4981917;28;20409;-84
2023/12/30 09:10:33;;;;;;;15.52;2.05;;;;;;;;;;5002144;28;20052;-82
2023/12/30 09:12:59;;;;;;;14.85;1.90;;;5.00;99.90;;;;;;5000282;28;20065;-85
2023/12/30 09:15:26;;;;;;;11.88;1.60;;;4.30;99.90;;;;;;4999266;28;20038;-84
2023/12/30 09:17:52;;;;;;;13.13;1.65;;;5.10;99.90;;;;;;5002744;28;20076;-83
2023/12/30 09:20:18;;;;;;;10.70;1.00;;;;;;;;;;4987541;28;20055;-83
2023/12/30 09:22:44;;;;;;;9.63;1.48;;;;;;;;;;5002631;28;20782;-82
2023/12/30 09:25:10;;;;;;;12.13;0.80;;;8.10;99.90;;;;;;4983338;28;20048;-83
2023/12/30 09:27:36;;;;;;;8.35;1.25;;;;;;;;;;4978180;28;20041;-84
2023/12/30 09:30:03;;;;;;;14.75;1.08;;;5.30;99.90;;;;;;5001564;28;20539;-83
2023/12/30 09:32:28;;;;;;;17.35;1.95;;;5.40;99.90;;;;;;5002488;28;20412;-84
2023/12/30 09:34:54;;;;;;;11.15;1.10;;;5.40;99.90;;;;;;5000691;28;20120;-83
2023/12/30 09:37:20;;;;;;;11.32;1.20;;;;;;;;;;4987066;28;20101;-83
2023/12/30 09:39:47;;;;;;;16.08;1.48;;;5.40;99.90;;;;;;4984343;28;20045;-83
2023/12/30 09:42:16;;;;;;;15.07;1.45;;;5.30;99.90;;;;;;5001142;28;20042;-81
2023/12/30 09:44:42;;;;;;;16.80;2.78;;;5.90;99.90;;;;;;4983865;28;20467;-84
2023/12/30 09:47:10;;;;;;;13.43;2.65;;;;;;;;;;4986050;28;20054;-83
2023/12/30 09:49:37;;;;;;;12.05;1.50;;;5.80;99.90;;;;;;4999165;28;20414;-81
2023/12/30 09:52:06;;;;;;;15.00;3.45;;;5.70;99.90;;;;;;5012543;28;20045;-82
2023/12/30 09:54:33;;;;;;;11.45;1.33;;;5.60;99.90;;;;;;5008889;28;20046;-84
2023/12/30 09:57:02;;;;;;;18.48;1.52;;;5.90;99.90;;;;;;4984097;28;20525;-81
2023/12/30 09:59:29;;;;;;;10.02;1.38;;;5.80;99.90;;;;;;5004876;28;20041;-83
2023/12/30 10:01:55;;;;;;;13.90;1.25;;;;;;;;;;4985787;28;20479;-84
2023/12/30 10:04:21;;;;;;;13.00;0.98;;;5.60;99.90;;;;;;4988162;28;20053;-83
2023/12/30 10:06:49;;;;;;;13.68;2.15;;;4.20;99.90;;;;;;4987008;28;20661;-83
2023/12/30 10:09:22;;;;;;;14.82;1.85;;;5.80;99.90;;;;;;4984370;28;20053;-82
2023/12/30 10:11:51;;;;;;;13.13;1.27;;;;;;;;;;4996173;28;20053;-84
2023/12/30 10:14:20;;;;;;;16.55;1.40;;;5.90;99.90;;;;;;4981565;28;20129;-83
2023/12/30 10:16:46;;;;;;;11.15;1.10;;;5.90;99.90;;;;;;4998876;28;20111;-85
2023/12/30 10:19:16;;;;;;;12.40;0.95;;;;;;;;;;4986471;28;20369;-80
2023/12/30 10:21:42;;;;;;;15.07;1.50;;;;;;;;;;5002510;28;20048;-81
2023/12/30 10:24:08;;;;;;;6.00;0.50;;;6.10;99.90;;;;;;5002390;28;20124;-84
2023/12/30 10:26:39;;;;;;;19.20;2.13;;;6.00;99.90;;;;;;4989635;28;20110;-83
2023/12/30 10:29:10;;;;;;;15.35;1.98;;;6.10;99.90;;;;;;4987603;28;20042;-82
2023/12/30 10:31:36;;;;;;;13.75;0.80;;;6.10;99.90;;;;;;5006139;28;20045;-81
2023/12/30 10:34:03;;;;;;;10.23;0.70;;;5.90;99.90;;;;;;4988634;28;20115;-82
2023/12/30 10:36:29;;;;;;;11.50;0.88;;;;;;;;;;5001904;28;20048;-84
2023/12/30 10:38:55;;;;;;;9.85;1.10;;;6.00;99.90;;;;;;4979580;28;20041;-83
2023/12/30 10:41:21;;;;;;;9.27;1.65;;;;;;;;;;4986001;28;20115;-82
2023/12/30 10:43:47;;;;;;;13.90;0.63;;;6.00;99.90;;;;;;4985304;28;20073;-84
2023/12/30 10:46:13;;;;;;;10.82;0.80;;;5.40;99.90;;;;;;4985679;28;20088;-83
2023/12/30 10:49:03;;;;;;;8.45;1.10;;;6.00;99.90;;;;;;4983546;28;20046;-82
2023/12/30 10:51:33;;;;;;;13.50;1.05;;;6.00;99.90;;;;;;4987947;28;20133;-83
2023/12/30 10:54:07;;;;;;;8.82;0.70;;;6.10;99.90;;;;;;5001739;28;20069;-85
2023/12/30 10:57:02;;;;;;;8.77;1.13;;;6.00;99.90;;;;;;4988508;28;20046;-83
2023/12/30 10:59:28;;;;;;;13.05;1.98;;;6.00;99.90;;;;;;4981948;28;20111;-83
2023/12/30 11:01:54;;;;;;;10.77;1.20;;;6.00;99.90;;;;;;4985781;28;20061;-84
2023/12/30 11:04:21;;;;;;;11.32;1.85;;;6.00;99.90;;;;;;4986896;28;20038;-82
2023/12/30 11:06:56;;;;;;;11.25;1.98;;;6.10;99.90;;;;;;4985463;28;20168;-85
2023/12/30 11:09:28;;;;;;;15.55;2.25;;;6.10;99.90;;;;;;5002918;28;20077;-83
2023/12/30 11:11:59;;;;;;;17.35;1.45;;;6.10;99.90;;;;;;4986304;28;20053;-84
2023/12/30 11:14:25;;;;;;;12.38;1.63;;;6.20;99.90;;;;;;4988028;28;20077;-83
2023/12/30 11:16:51;;;;;;;12.85;1.88;;;6.20;99.90;;;;;;4985897;28;20725;-84
2023/12/30 11:19:31;;;;;;;27.50;4.40;;;6.40;99.90;;;;;;4986688;28;20044;-84
2023/12/30 11:22:05;;;;;;;17.35;3.22;;;6.20;99.90;;;;;;4986273;28;20046;-84
2023/12/30 11:24:33;;;;;;;19.55;4.43;;;6.00;99.90;;;;;;4988993;28;20127;-84
2023/12/30 11:26:58;;;;;;;17.17;2.83;;;6.20;99.90;;;;;;4985312;28;20088;-83
2023/12/30 11:29:26;;;;;;;15.88;2.65;;;6.30;99.90;;;;;;5002842;28;20052;-84
2023/12/30 11:31:57;;;;;;;13.30;2.55;;;6.20;99.90;;;;;;5001050;28;20076;-83
2023/12/30 11:34:24;;;;;;;16.58;2.60;;;;;;;;;;4985977;28;20574;-83
2023/12/30 11:36:51;;;;;;;14.98;3.60;;;6.40;99.90;;;;;;4984716;28;20126;-83
2023/12/30 11:39:28;;;;;;;12.75;2.65;;;6.30;99.90;;;;;;5001493;28;20042;-84
2023/12/30 11:41:57;;;;;;;13.60;2.47;;;6.40;99.90;;;;;;4984825;28;20057;-81
2023/12/30 11:44:23;;;;;;;14.73;3.20;;;6.50;99.90;;;;;;5002853;28;20116;-85
2023/12/30 11:46:49;;;;;;;14.07;2.60;;;6.50;99.90;;;;;;4987503;28;20041;-81
2023/12/30 11:49:23;;;;;;;14.85;2.35;;;6.50;99.90;;;;;;4990001;28;20082;-82
2023/12/30 11:51:49;;;;;;;16.92;3.97;;;6.60;99.90;;;;;;4989517;28;20773;-82
2023/12/30 11:54:15;;;;;;;17.33;4.13;;;7.50;99.90;;;;;;4989934;28;20050;-82
2023/12/30 11:56:42;;;;;;;9.93;2.38;;;;;;;;;;5005703;28;20041;-83
2023/12/30 11:59:08;;;;;;;13.38;2.30;;;6.60;99.90;;;;;;4988454;28;20136;-84
2023/12/30 12:01:34;;;;;;;13.02;2.22;;;6.70;99.90;;;;;;4991772;28;20048;-82
2023/12/30 12:04:00;;;;;;;15.43;1.85;;;6.80;99.90;;;;;;5005772;28;20053;-82
2023/12/30 12:06:26;;;;;;;5.55;1.60;;;6.80;99.90;;;;;;4991055;28;20423;-82
2023/12/30 12:08:52;;;;;;;13.02;2.60;;;6.80;99.90;;;;;;4989383;28;20051;-83
2023/12/30 12:11:20;;;;;;;10.07;2.72;;;6.90;99.90;;;;;;4991617;28;20049;-83
2023/12/30 12:13:46;;;;;;;14.32;3.55;;;;;;;;;;5006901;28;20065;-83
2023/12/30 12:16:13;;;;;;;13.93;2.97;;;;;;;;;;4984242;28;20041;-83
2023/12/30 12:18:40;;;;;;;20.15;3.53;;;6.80;99.90;;;;;;4990595;28;20042;-83
2023/12/30 12:21:14;;;;;;;18.48;3.25;;;6.70;99.90;;;;;;4991599;28;20073;-82
2023/12/30 12:23:43;;;;;;;21.35;2.95;;;8.70;99.90;;;;;;5001253;28;20689;-84
2023/12/30 12:26:09;;;;;;;13.38;3.63;;;;;;;;;;5010244;28;20136;-83
2023/12/30 12:28:36;;;;;;;14.07;2.88;;;;;;;;;;4997041;28;20084;-84
2023/12/30 12:31:02;;;;;;;15.68;3.10;;;6.80;99.90;;;;;;4995749;28;20041;-85
2023/12/30 12:33:29;;;;;;;14.95;2.97;;;;;;;;;;4993820;28;20053;-85
2023/12/30 12:35:55;;;;;;;17.33;3.78;;;;;;;;;;5007322;28;20099;-84
2023/12/30 12:38:21;;;;;;;20.27;3.58;;;;;;;;;;5008805;28;20384;-84
2023/12/30 12:40:47;;;;;;;20.55;4.80;;;;;;;;;;4990925;28;20045;-84
2023/12/30 12:43:13;;;;;;;19.08;3.20;;;;;;;;;;4991200;28;20053;-82
2023/12/30 12:45:40;;;;;;;21.45;4.40;;;;;;;;;;4990620;28;20058;-83
2023/12/30 12:48:06;;;;;;;16.77;4.07;;;7.10;99.90;;;;;;4990576;28;20077;-85
2023/12/30 12:50:32;;;;;;;17.42;2.42;;;7.00;99.90;;;;;;5009596;28;20410;-83
2023/12/30 12:52:58;;;;;;;13.00;2.83;;;7.10;99.90;;;;;;4990190;28;20046;-83
2023/12/30 12:55:23;;;;;;;14.35;2.55;;;7.20;99.90;;;;;;4992312;28;20049;-84
2023/12/30 12:57:49;;;;;;;15.90;2.38;;;7.40;99.90;;;;;;4988931;28;20561;-83
2023/12/30 13:00:18;;;;;;;15.10;2.67;;;7.20;99.90;;;;;;4991945;28;20060;-85
2023/12/30 13:02:45;;;;;;;13.57;2.65;;;7.40;99.90;;;;;;4993338;28;20077;-84